sensor_id;sensor_type;location;lat;lon;timestamp;P1;durP1;ratioP1;P2;durP2;ratioP2
33347;SDS011;19707;51.158;17.124;2023-06-01T00:02:20;10.80;;;6.60;;
33347;SDS011;19707;51.158;17.124;2023-06-01T00:05:22;10.20;;;6.30;;
33347;SDS011;19707;51.158;17.124;2023-06-01T00:08:25;14.30;;;7.20;;
33347;SDS011;19707;51.158;17.124;2023-06-01T00:11:28;13.60;;;6.80;;
33347;SDS011;19707;51.158;17.124;2023-06-01T00:14:30;15.10;;;8.20;;
33347;SDS011;19707;51.158;17.124;2023-06-01T00:17:32;19.50;;;9.80;;
33347;SDS011;19707;51.158;17.124;2023-06-01T00:20:34;17.00;;;8.90;;
33347;SDS011;19707;51.158;17.124;2023-06-01T00:23:36;12.20;;;7.00;;
33347;SDS011;19707;51.158;17.124;2023-06-01T00:26:42;15.00;;;7.30;;
33347;SDS011;19707;51.158;17.124;2023-06-01T00:29:44;15.70;;;7.40;;
33347;SDS011;19707;51.158;17.124;2023-06-01T00:32:46;11.80;;;7.50;;
33347;SDS011;19707;51.158;17.124;2023-06-01T00:35:48;23.40;;;9.30;;
33347;SDS011;19707;51.158;17.124;2023-06-01T00:38:51;12.20;;;6.90;;
33347;SDS011;19707;51.158;17.124;2023-06-01T00:41:53;14.70;;;7.20;;
33347;SDS011;19707;51.158;17.124;2023-06-01T00:44:55;11.60;;;7.40;;
33347;SDS011;19707;51.158;17.124;2023-06-01T00:47:57;18.20;;;8.60;;
33347;SDS011;19707;51.158;17.124;2023-06-01T00:51:01;15.10;;;8.90;;
33347;SDS011;19707;51.158;17.124;2023-06-01T00:54:03;19.10;;;11.60;;
33347;SDS011;19707;51.158;17.124;2023-06-01T00:57:05;17.10;;;8.50;;
33347;SDS011;19707;51.158;17.124;2023-06-01T01:00:09;16.90;;;9.00;;
33347;SDS011;19707;51.158;17.124;2023-06-01T01:03:11;14.00;;;8.00;;
33347;SDS011;19707;51.158;17.124;2023-06-01T01:06:20;15.20;;;8.60;;
33347;SDS011;19707;51.158;17.124;2023-06-01T01:09:40;15.10;;;7.90;;
33347;SDS011;19707;51.158;17.124;2023-06-01T01:19:42;9.80;;;6.70;;
33347;SDS011;19707;51.158;17.124;2023-06-01T01:26:14;13.90;;;7.60;;
33347;SDS011;19707;51.158;17.124;2023-06-01T01:29:22;11.50;;;7.00;;
33347;SDS011;19707;51.158;17.124;2023-06-01T01:32:25;14.60;;;7.50;;
33347;SDS011;19707;51.158;17.124;2023-06-01T01:35:28;16.60;;;7.60;;
33347;SDS011;19707;51.158;17.124;2023-06-01T01:38:33;14.20;;;7.10;;
33347;SDS011;19707;51.158;17.124;2023-06-01T01:41:37;14.90;;;7.20;;
33347;SDS011;19707;51.158;17.124;2023-06-01T01:44:39;13.10;;;7.70;;
33347;SDS011;19707;51.158;17.124;2023-06-01T01:51:22;23.60;;;10.50;;
33347;SDS011;19707;51.158;17.124;2023-06-01T01:54:49;15.30;;;9.50;;
33347;SDS011;19707;51.158;17.124;2023-06-01T01:57:53;16.80;;;9.30;;
33347;SDS011;19707;51.158;17.124;2023-06-01T02:00:56;18.00;;;9.00;;
33347;SDS011;19707;51.158;17.124;2023-06-01T02:04:04;17.40;;;8.00;;
33347;SDS011;19707;51.158;17.124;2023-06-01T02:07:09;19.30;;;8.30;;
33347;SDS011;19707;51.158;17.124;2023-06-01T02:10:14;14.40;;;8.10;;
33347;SDS011;19707;51.158;17.124;2023-06-01T02:13:16;15.20;;;9.00;;
33347;SDS011;19707;51.158;17.124;2023-06-01T02:16:18;15.80;;;8.90;;
33347;SDS011;19707;51.158;17.124;2023-06-01T02:19:20;20.80;;;8.00;;
33347;SDS011;19707;51.158;17.124;2023-06-01T02:22:23;17.10;;;9.60;;
33347;SDS011;19707;51.158;17.124;2023-06-01T02:25:25;15.20;;;8.90;;
33347;SDS011;19707;51.158;17.124;2023-06-01T02:28:30;18.00;;;10.00;;
33347;SDS011;19707;51.158;17.124;2023-06-01T02:31:33;24.20;;;11.40;;
33347;SDS011;19707;51.158;17.124;2023-06-01T02:34:36;14.00;;;9.00;;
33347;SDS011;19707;51.158;17.124;2023-06-01T02:37:38;17.80;;;10.40;;
33347;SDS011;19707;51.158;17.124;2023-06-01T02:40:40;14.20;;;9.90;;
33347;SDS011;19707;51.158;17.124;2023-06-01T02:43:43;17.80;;;11.40;;
33347;SDS011;19707;51.158;17.124;2023-06-01T02:46:45;19.60;;;10.40;;
33347;SDS011;19707;51.158;17.124;2023-06-01T02:49:48;18.90;;;10.00;;
33347;SDS011;19707;51.158;17.124;2023-06-01T02:52:51;16.20;;;9.90;;
33347;SDS011;19707;51.158;17.124;2023-06-01T02:55:53;21.10;;;9.40;;
33347;SDS011;19707;51.158;17.124;2023-06-01T02:58:56;13.40;;;8.80;;
33347;SDS011;19707;51.158;17.124;2023-06-01T03:01:58;16.70;;;9.20;;
33347;SDS011;19707;51.158;17.124;2023-06-01T03:05:01;16.40;;;9.40;;
33347;SDS011;19707;51.158;17.124;2023-06-01T03:08:07;15.70;;;8.90;;
33347;SDS011;19707;51.158;17.124;2023-06-01T03:11:09;17.80;;;10.00;;
33347;SDS011;19707;51.158;17.124;2023-06-01T03:14:11;17.50;;;10.00;;
33347;SDS011;19707;51.158;17.124;2023-06-01T03:17:14;25.20;;;9.50;;
33347;SDS011;19707;51.158;17.124;2023-06-01T03:20:16;14.60;;;8.70;;
33347;SDS011;19707;51.158;17.124;2023-06-01T03:23:18;14.80;;;8.50;;
33347;SDS011;19707;51.158;17.124;2023-06-01T03:26:20;13.20;;;8.90;;
33347;SDS011;19707;51.158;17.124;2023-06-01T03:29:23;13.30;;;8.50;;
33347;SDS011;19707;51.158;17.124;2023-06-01T03:32:25;13.70;;;8.90;;
33347;SDS011;19707;51.158;17.124;2023-06-01T03:35:28;17.10;;;8.80;;
33347;SDS011;19707;51.158;17.124;2023-06-01T03:38:30;14.20;;;8.30;;
33347;SDS011;19707;51.158;17.124;2023-06-01T03:41:32;14.70;;;8.40;;
33347;SDS011;19707;51.158;17.124;2023-06-01T03:44:34;14.20;;;8.90;;
33347;SDS011;19707;51.158;17.124;2023-06-01T03:47:37;18.90;;;8.40;;
33347;SDS011;19707;51.158;17.124;2023-06-01T03:50:40;21.10;;;9.10;;
33347;SDS011;19707;51.158;17.124;2023-06-01T03:53:43;12.50;;;9.60;;
33347;SDS011;19707;51.158;17.124;2023-06-01T03:56:46;19.30;;;9.00;;
33347;SDS011;19707;51.158;17.124;2023-06-01T03:59:49;17.20;;;10.20;;
33347;SDS011;19707;51.158;17.124;2023-06-01T04:02:59;20.20;;;8.90;;
33347;SDS011;19707;51.158;17.124;2023-06-01T04:06:11;18.30;;;9.00;;
33347;SDS011;19707;51.158;17.124;2023-06-01T04:09:15;18.20;;;9.60;;
33347;SDS011;19707;51.158;17.124;2023-06-01T04:12:18;20.00;;;10.40;;
33347;SDS011;19707;51.158;17.124;2023-06-01T04:15:21;18.50;;;9.80;;
33347;SDS011;19707;51.158;17.124;2023-06-01T04:18:23;18.70;;;10.70;;
33347;SDS011;19707;51.158;17.124;2023-06-01T04:21:26;15.80;;;10.00;;
33347;SDS011;19707;51.158;17.124;2023-06-01T04:24:28;29.30;;;11.00;;
33347;SDS011;19707;51.158;17.124;2023-06-01T04:27:30;21.20;;;10.50;;
33347;SDS011;19707;51.158;17.124;2023-06-01T04:30:32;21.10;;;10.20;;
33347;SDS011;19707;51.158;17.124;2023-06-01T04:33:35;19.80;;;11.70;;
33347;SDS011;19707;51.158;17.124;2023-06-01T04:36:41;21.50;;;10.80;;
33347;SDS011;19707;51.158;17.124;2023-06-01T04:39:44;37.00;;;11.70;;
33347;SDS011;19707;51.158;17.124;2023-06-01T04:42:50;22.50;;;9.70;;
33347;SDS011;19707;51.158;17.124;2023-06-01T04:45:57;17.10;;;10.40;;
33347;SDS011;19707;51.158;17.124;2023-06-01T04:49:05;21.60;;;10.40;;
33347;SDS011;19707;51.158;17.124;2023-06-01T04:52:07;22.30;;;9.70;;
33347;SDS011;19707;51.158;17.124;2023-06-01T04:55:11;23.50;;;9.10;;
33347;SDS011;19707;51.158;17.124;2023-06-01T04:58:17;16.30;;;8.90;;
33347;SDS011;19707;51.158;17.124;2023-06-01T05:01:22;16.60;;;8.90;;
33347;SDS011;19707;51.158;17.124;2023-06-01T05:04:31;22.80;;;9.50;;
33347;SDS011;19707;51.158;17.124;2023-06-01T05:07:33;26.50;;;8.30;;
33347;SDS011;19707;51.158;17.124;2023-06-01T05:10:37;13.20;;;7.40;;
33347;SDS011;19707;51.158;17.124;2023-06-01T05:13:40;21.90;;;8.60;;
33347;SDS011;19707;51.158;17.124;2023-06-01T05:16:43;17.60;;;7.80;;
33347;SDS011;19707;51.158;17.124;2023-06-01T05:19:45;17.90;;;8.90;;
33347;SDS011;19707;51.158;17.124;2023-06-01T05:22:47;17.80;;;8.30;;
33347;SDS011;19707;51.158;17.124;2023-06-01T05:25:49;15.30;;;8.80;;
33347;SDS011;19707;51.158;17.124;2023-06-01T05:28:52;17.90;;;8.00;;
33347;SDS011;19707;51.158;17.124;2023-06-01T05:31:54;12.90;;;7.30;;
33347;SDS011;19707;51.158;17.124;2023-06-01T05:34:56;18.30;;;7.40;;
33347;SDS011;19707;51.158;17.124;2023-06-01T05:37:59;16.90;;;7.40;;
33347;SDS011;19707;51.158;17.124;2023-06-01T05:41:02;14.30;;;7.90;;
33347;SDS011;19707;51.158;17.124;2023-06-01T05:44:04;16.00;;;7.40;;
33347;SDS011;19707;51.158;17.124;2023-06-01T05:47:06;16.30;;;7.00;;
33347;SDS011;19707;51.158;17.124;2023-06-01T05:50:09;14.80;;;7.50;;
33347;SDS011;19707;51.158;17.124;2023-06-01T05:53:12;10.70;;;5.90;;
33347;SDS011;19707;51.158;17.124;2023-06-01T05:56:14;10.10;;;6.00;;
33347;SDS011;19707;51.158;17.124;2023-06-01T05:59:18;10.60;;;6.10;;
33347;SDS011;19707;51.158;17.124;2023-06-01T06:02:20;12.70;;;6.50;;
33347;SDS011;19707;51.158;17.124;2023-06-01T06:05:23;11.90;;;5.60;;
33347;SDS011;19707;51.158;17.124;2023-06-01T06:08:25;11.10;;;5.40;;
33347;SDS011;19707;51.158;17.124;2023-06-01T06:11:27;12.60;;;6.00;;
33347;SDS011;19707;51.158;17.124;2023-06-01T06:14:30;13.30;;;5.80;;
33347;SDS011;19707;51.158;17.124;2023-06-01T06:17:32;7.60;;;5.10;;
33347;SDS011;19707;51.158;17.124;2023-06-01T06:20:34;7.10;;;4.70;;
33347;SDS011;19707;51.158;17.124;2023-06-01T06:23:36;14.20;;;5.00;;
33347;SDS011;19707;51.158;17.124;2023-06-01T06:26:41;8.50;;;4.00;;
33347;SDS011;19707;51.158;17.124;2023-06-01T06:29:43;7.30;;;4.10;;
33347;SDS011;19707;51.158;17.124;2023-06-01T06:32:45;10.10;;;4.60;;
33347;SDS011;19707;51.158;17.124;2023-06-01T06:35:47;7.90;;;4.10;;
33347;SDS011;19707;51.158;17.124;2023-06-01T06:38:49;7.10;;;3.80;;
33347;SDS011;19707;51.158;17.124;2023-06-01T06:41:51;9.50;;;3.90;;
33347;SDS011;19707;51.158;17.124;2023-06-01T06:44:53;7.40;;;4.30;;
33347;SDS011;19707;51.158;17.124;2023-06-01T06:47:55;6.30;;;3.60;;
33347;SDS011;19707;51.158;17.124;2023-06-01T06:50:57;8.00;;;4.00;;
33347;SDS011;19707;51.158;17.124;2023-06-01T06:54:00;8.70;;;4.50;;
33347;SDS011;19707;51.158;17.124;2023-06-01T06:57:04;8.50;;;3.90;;
33347;SDS011;19707;51.158;17.124;2023-06-01T07:00:07;10.40;;;3.50;;
33347;SDS011;19707;51.158;17.124;2023-06-01T07:03:10;7.00;;;3.70;;
33347;SDS011;19707;51.158;17.124;2023-06-01T07:06:13;8.90;;;3.60;;
33347;SDS011;19707;51.158;17.124;2023-06-01T07:09:15;7.10;;;3.10;;
33347;SDS011;19707;51.158;17.124;2023-06-01T07:12:17;8.70;;;3.80;;
33347;SDS011;19707;51.158;17.124;2023-06-01T07:15:19;10.20;;;3.80;;
33347;SDS011;19707;51.158;17.124;2023-06-01T07:18:21;5.70;;;3.10;;
33347;SDS011;19707;51.158;17.124;2023-06-01T07:21:23;6.20;;;3.20;;
33347;SDS011;19707;51.158;17.124;2023-06-01T07:24:25;10.20;;;3.40;;
33347;SDS011;19707;51.158;17.124;2023-06-01T07:27:27;7.20;;;3.50;;
33347;SDS011;19707;51.158;17.124;2023-06-01T07:30:29;3.20;;;2.90;;
33347;SDS011;19707;51.158;17.124;2023-06-01T07:33:32;5.90;;;3.50;;
33347;SDS011;19707;51.158;17.124;2023-06-01T07:36:35;4.20;;;3.30;;
33347;SDS011;19707;51.158;17.124;2023-06-01T07:39:38;4.80;;;3.40;;
33347;SDS011;19707;51.158;17.124;2023-06-01T07:42:40;8.00;;;3.60;;
33347;SDS011;19707;51.158;17.124;2023-06-01T07:45:42;5.40;;;3.80;;
33347;SDS011;19707;51.158;17.124;2023-06-01T07:48:44;5.50;;;3.50;;
33347;SDS011;19707;51.158;17.124;2023-06-01T07:51:47;5.90;;;4.00;;
33347;SDS011;19707;51.158;17.124;2023-06-01T07:54:50;6.90;;;4.40;;
33347;SDS011;19707;51.158;17.124;2023-06-01T07:57:53;7.20;;;5.10;;
33347;SDS011;19707;51.158;17.124;2023-06-01T08:00:55;5.90;;;4.40;;
33347;SDS011;19707;51.158;17.124;2023-06-01T08:03:57;5.50;;;3.80;;
33347;SDS011;19707;51.158;17.124;2023-06-01T08:10:08;4.00;;;3.20;;
33347;SDS011;19707;51.158;17.124;2023-06-01T08:13:11;5.60;;;2.90;;
33347;SDS011;19707;51.158;17.124;2023-06-01T08:16:13;6.90;;;2.90;;
33347;SDS011;19707;51.158;17.124;2023-06-01T08:19:15;5.00;;;2.50;;
33347;SDS011;19707;51.158;17.124;2023-06-01T08:22:19;4.20;;;2.60;;
33347;SDS011;19707;51.158;17.124;2023-06-01T08:25:22;4.70;;;2.60;;
33347;SDS011;19707;51.158;17.124;2023-06-01T08:28:25;5.90;;;2.80;;
33347;SDS011;19707;51.158;17.124;2023-06-01T08:31:27;4.50;;;2.40;;
33347;SDS011;19707;51.158;17.124;2023-06-01T08:34:29;5.40;;;2.40;;
33347;SDS011;19707;51.158;17.124;2023-06-01T08:37:32;4.50;;;2.30;;
33347;SDS011;19707;51.158;17.124;2023-06-01T08:40:34;3.20;;;2.40;;
33347;SDS011;19707;51.158;17.124;2023-06-01T08:43:37;4.00;;;2.40;;
33347;SDS011;19707;51.158;17.124;2023-06-01T08:46:43;5.20;;;2.30;;
33347;SDS011;19707;51.158;17.124;2023-06-01T08:49:45;6.00;;;2.20;;
33347;SDS011;19707;51.158;17.124;2023-06-01T08:52:48;8.90;;;2.10;;
33347;SDS011;19707;51.158;17.124;2023-06-01T08:55:52;2.50;;;2.30;;
33347;SDS011;19707;51.158;17.124;2023-06-01T08:58:55;5.40;;;2.10;;
33347;SDS011;19707;51.158;17.124;2023-06-01T09:01:57;2.10;;;1.80;;
33347;SDS011;19707;51.158;17.124;2023-06-01T09:05:00;6.20;;;2.60;;
33347;SDS011;19707;51.158;17.124;2023-06-01T09:08:02;2.80;;;2.30;;
33347;SDS011;19707;51.158;17.124;2023-06-01T09:11:05;5.40;;;2.20;;
33347;SDS011;19707;51.158;17.124;2023-06-01T09:14:21;4.10;;;2.00;;
33347;SDS011;19707;51.158;17.124;2023-06-01T09:17:24;4.70;;;1.90;;
33347;SDS011;19707;51.158;17.124;2023-06-01T09:20:27;3.90;;;2.40;;
33347;SDS011;19707;51.158;17.124;2023-06-01T09:23:30;7.50;;;2.20;;
33347;SDS011;19707;51.158;17.124;2023-06-01T09:26:32;3.40;;;2.40;;
33347;SDS011;19707;51.158;17.124;2023-06-01T09:29:34;3.70;;;2.10;;
33347;SDS011;19707;51.158;17.124;2023-06-01T09:32:36;6.00;;;2.20;;
33347;SDS011;19707;51.158;17.124;2023-06-01T09:35:48;3.00;;;2.00;;
33347;SDS011;19707;51.158;17.124;2023-06-01T09:38:52;2.80;;;1.90;;
33347;SDS011;19707;51.158;17.124;2023-06-01T09:42:05;3.80;;;1.70;;
33347;SDS011;19707;51.158;17.124;2023-06-01T09:45:18;3.90;;;2.50;;
33347;SDS011;19707;51.158;17.124;2023-06-01T09:48:25;6.60;;;2.30;;
33347;SDS011;19707;51.158;17.124;2023-06-01T09:51:30;2.80;;;1.80;;
33347;SDS011;19707;51.158;17.124;2023-06-01T09:54:34;3.70;;;2.10;;
33347;SDS011;19707;51.158;17.124;2023-06-01T09:57:38;4.30;;;2.20;;
33347;SDS011;19707;51.158;17.124;2023-06-01T10:00:41;8.20;;;2.40;;
33347;SDS011;19707;51.158;17.124;2023-06-01T10:03:43;2.20;;;1.70;;
33347;SDS011;19707;51.158;17.124;2023-06-01T10:06:46;3.90;;;2.40;;
33347;SDS011;19707;51.158;17.124;2023-06-01T10:09:56;2.90;;;1.80;;
33347;SDS011;19707;51.158;17.124;2023-06-01T10:12:59;4.60;;;2.00;;
33347;SDS011;19707;51.158;17.124;2023-06-01T10:16:02;2.90;;;1.90;;
33347;SDS011;19707;51.158;17.124;2023-06-01T10:19:05;5.00;;;2.10;;
33347;SDS011;19707;51.158;17.124;2023-06-01T10:22:07;3.10;;;2.20;;
33347;SDS011;19707;51.158;17.124;2023-06-01T10:25:12;3.10;;;2.10;;
33347;SDS011;19707;51.158;17.124;2023-06-01T10:28:17;3.60;;;2.10;;
33347;SDS011;19707;51.158;17.124;2023-06-01T10:34:42;5.90;;;1.90;;
33347;SDS011;19707;51.158;17.124;2023-06-01T10:38:21;3.50;;;1.90;;
33347;SDS011;19707;51.158;17.124;2023-06-01T10:41:28;5.90;;;2.00;;
33347;SDS011;19707;51.158;17.124;2023-06-01T10:47:44;6.90;;;2.40;;
33347;SDS011;19707;51.158;17.124;2023-06-01T10:50:46;7.00;;;2.50;;
33347;SDS011;19707;51.158;17.124;2023-06-01T10:54:28;2.70;;;2.00;;
33347;SDS011;19707;51.158;17.124;2023-06-01T10:57:35;5.70;;;1.70;;
33347;SDS011;19707;51.158;17.124;2023-06-01T11:00:38;6.40;;;2.00;;
33347;SDS011;19707;51.158;17.124;2023-06-01T11:03:42;8.10;;;1.90;;
33347;SDS011;19707;51.158;17.124;2023-06-01T11:06:46;3.90;;;1.90;;
33347;SDS011;19707;51.158;17.124;2023-06-01T11:09:48;3.60;;;2.00;;
33347;SDS011;19707;51.158;17.124;2023-06-01T11:19:17;6.20;;;2.10;;
33347;SDS011;19707;51.158;17.124;2023-06-01T11:22:27;6.80;;;2.10;;
33347;SDS011;19707;51.158;17.124;2023-06-01T11:25:37;2.80;;;2.20;;
33347;SDS011;19707;51.158;17.124;2023-06-01T11:28:39;3.60;;;2.00;;
33347;SDS011;19707;51.158;17.124;2023-06-01T11:31:45;5.30;;;2.70;;
33347;SDS011;19707;51.158;17.124;2023-06-01T11:34:49;3.00;;;1.80;;
33347;SDS011;19707;51.158;17.124;2023-06-01T11:37:55;2.50;;;2.20;;
33347;SDS011;19707;51.158;17.124;2023-06-01T11:40:58;4.00;;;2.20;;
33347;SDS011;19707;51.158;17.124;2023-06-01T11:44:02;4.50;;;2.40;;
33347;SDS011;19707;51.158;17.124;2023-06-01T11:47:04;2.50;;;2.10;;
33347;SDS011;19707;51.158;17.124;2023-06-01T11:50:19;6.60;;;2.60;;
33347;SDS011;19707;51.158;17.124;2023-06-01T11:53:23;7.70;;;2.70;;
33347;SDS011;19707;51.158;17.124;2023-06-01T11:56:33;4.60;;;2.40;;
33347;SDS011;19707;51.158;17.124;2023-06-01T11:59:37;3.70;;;2.40;;
33347;SDS011;19707;51.158;17.124;2023-06-01T12:02:40;4.90;;;2.20;;
33347;SDS011;19707;51.158;17.124;2023-06-01T12:05:44;4.30;;;2.20;;
33347;SDS011;19707;51.158;17.124;2023-06-01T12:08:53;6.90;;;2.60;;
33347;SDS011;19707;51.158;17.124;2023-06-01T12:11:57;4.20;;;2.50;;
33347;SDS011;19707;51.158;17.124;2023-06-01T12:14:59;5.00;;;2.50;;
33347;SDS011;19707;51.158;17.124;2023-06-01T12:18:01;4.30;;;2.60;;
33347;SDS011;19707;51.158;17.124;2023-06-01T12:21:11;6.70;;;2.60;;
33347;SDS011;19707;51.158;17.124;2023-06-01T12:24:14;7.00;;;2.70;;
33347;SDS011;19707;51.158;17.124;2023-06-01T12:27:17;3.80;;;2.70;;
33347;SDS011;19707;51.158;17.124;2023-06-01T12:30:23;4.50;;;2.60;;
33347;SDS011;19707;51.158;17.124;2023-06-01T12:36:37;7.90;;;2.90;;
33347;SDS011;19707;51.158;17.124;2023-06-01T12:39:40;4.60;;;2.70;;
33347;SDS011;19707;51.158;17.124;2023-06-01T12:42:44;5.90;;;2.40;;
33347;SDS011;19707;51.158;17.124;2023-06-01T12:45:46;3.40;;;2.30;;
33347;SDS011;19707;51.158;17.124;2023-06-01T12:48:49;4.60;;;2.40;;
33347;SDS011;19707;51.158;17.124;2023-06-01T12:51:56;5.00;;;2.40;;
33347;SDS011;19707;51.158;17.124;2023-06-01T12:54:59;5.80;;;2.80;;
33347;SDS011;19707;51.158;17.124;2023-06-01T12:58:01;3.70;;;2.70;;
33347;SDS011;19707;51.158;17.124;2023-06-01T13:01:05;5.90;;;2.40;;
33347;SDS011;19707;51.158;17.124;2023-06-01T13:04:08;6.50;;;2.80;;
33347;SDS011;19707;51.158;17.124;2023-06-01T13:07:10;3.90;;;2.50;;
33347;SDS011;19707;51.158;17.124;2023-06-01T13:10:14;6.00;;;2.90;;
33347;SDS011;19707;51.158;17.124;2023-06-01T13:13:16;3.20;;;2.60;;
33347;SDS011;19707;51.158;17.124;2023-06-01T13:16:19;8.70;;;2.70;;
33347;SDS011;19707;51.158;17.124;2023-06-01T13:19:22;6.10;;;2.50;;
33347;SDS011;19707;51.158;17.124;2023-06-01T13:25:29;4.80;;;3.20;;
33347;SDS011;19707;51.158;17.124;2023-06-01T13:28:31;5.20;;;3.30;;
33347;SDS011;19707;51.158;17.124;2023-06-01T13:31:33;6.90;;;3.30;;
33347;SDS011;19707;51.158;17.124;2023-06-01T13:34:37;3.60;;;2.20;;
33347;SDS011;19707;51.158;17.124;2023-06-01T13:37:39;4.70;;;2.80;;
33347;SDS011;19707;51.158;17.124;2023-06-01T13:40:42;5.50;;;2.50;;
33347;SDS011;19707;51.158;17.124;2023-06-01T13:43:44;7.20;;;3.20;;
33347;SDS011;19707;51.158;17.124;2023-06-01T13:46:47;6.40;;;2.50;;
33347;SDS011;19707;51.158;17.124;2023-06-01T13:49:50;4.80;;;2.80;;
33347;SDS011;19707;51.158;17.124;2023-06-01T13:52:53;5.20;;;2.60;;
33347;SDS011;19707;51.158;17.124;2023-06-01T13:55:56;4.90;;;2.70;;
33347;SDS011;19707;51.158;17.124;2023-06-01T13:58:58;5.90;;;2.60;;
33347;SDS011;19707;51.158;17.124;2023-06-01T14:02:00;6.30;;;3.20;;
33347;SDS011;19707;51.158;17.124;2023-06-01T14:05:03;4.30;;;2.30;;
33347;SDS011;19707;51.158;17.124;2023-06-01T14:08:06;3.80;;;2.30;;
33347;SDS011;19707;51.158;17.124;2023-06-01T14:11:09;4.70;;;3.10;;
33347;SDS011;19707;51.158;17.124;2023-06-01T14:14:11;4.20;;;3.30;;
33347;SDS011;19707;51.158;17.124;2023-06-01T14:17:14;8.10;;;2.90;;
33347;SDS011;19707;51.158;17.124;2023-06-01T14:20:16;5.90;;;3.10;;
33347;SDS011;19707;51.158;17.124;2023-06-01T14:23:19;3.20;;;2.50;;
33347;SDS011;19707;51.158;17.124;2023-06-01T14:26:21;7.10;;;2.70;;
33347;SDS011;19707;51.158;17.124;2023-06-01T14:29:23;10.00;;;2.90;;
33347;SDS011;19707;51.158;17.124;2023-06-01T14:32:26;7.60;;;2.80;;
33347;SDS011;19707;51.158;17.124;2023-06-01T14:35:28;5.40;;;2.80;;
33347;SDS011;19707;51.158;17.124;2023-06-01T14:38:30;6.00;;;3.80;;
33347;SDS011;19707;51.158;17.124;2023-06-01T14:41:33;5.40;;;2.80;;
33347;SDS011;19707;51.158;17.124;2023-06-01T14:44:35;4.80;;;3.00;;
33347;SDS011;19707;51.158;17.124;2023-06-01T14:47:37;5.30;;;2.60;;
33347;SDS011;19707;51.158;17.124;2023-06-01T14:50:43;4.70;;;2.90;;
33347;SDS011;19707;51.158;17.124;2023-06-01T14:53:45;4.20;;;3.00;;
33347;SDS011;19707;51.158;17.124;2023-06-01T14:56:47;4.40;;;2.60;;
33347;SDS011;19707;51.158;17.124;2023-06-01T14:59:50;7.30;;;3.20;;
33347;SDS011;19707;51.158;17.124;2023-06-01T15:02:53;4.00;;;2.50;;
33347;SDS011;19707;51.158;17.124;2023-06-01T15:05:55;7.50;;;3.00;;
33347;SDS011;19707;51.158;17.124;2023-06-01T15:08:57;5.30;;;2.80;;
33347;SDS011;19707;51.158;17.124;2023-06-01T15:12:00;7.10;;;2.90;;
33347;SDS011;19707;51.158;17.124;2023-06-01T15:15:02;10.50;;;3.40;;
33347;SDS011;19707;51.158;17.124;2023-06-01T15:18:05;5.80;;;3.00;;
33347;SDS011;19707;51.158;17.124;2023-06-01T15:21:07;7.40;;;2.80;;
33347;SDS011;19707;51.158;17.124;2023-06-01T15:24:09;10.10;;;3.50;;
33347;SDS011;19707;51.158;17.124;2023-06-01T15:27:12;8.50;;;3.80;;
33347;SDS011;19707;51.158;17.124;2023-06-01T15:30:14;8.00;;;3.20;;
33347;SDS011;19707;51.158;17.124;2023-06-01T15:33:16;10.30;;;3.00;;
33347;SDS011;19707;51.158;17.124;2023-06-01T15:36:19;6.30;;;2.90;;
33347;SDS011;19707;51.158;17.124;2023-06-01T15:39:21;6.30;;;3.70;;
33347;SDS011;19707;51.158;17.124;2023-06-01T15:42:23;4.40;;;2.80;;
33347;SDS011;19707;51.158;17.124;2023-06-01T15:45:25;4.90;;;3.10;;
33347;SDS011;19707;51.158;17.124;2023-06-01T15:48:32;5.30;;;3.10;;
33347;SDS011;19707;51.158;17.124;2023-06-01T15:51:34;6.10;;;3.30;;
33347;SDS011;19707;51.158;17.124;2023-06-01T15:54:37;5.30;;;2.80;;
33347;SDS011;19707;51.158;17.124;2023-06-01T15:57:39;6.70;;;3.20;;
33347;SDS011;19707;51.158;17.124;2023-06-01T16:00:42;11.10;;;3.00;;
33347;SDS011;19707;51.158;17.124;2023-06-01T16:03:44;9.50;;;3.60;;
33347;SDS011;19707;51.158;17.124;2023-06-01T16:06:47;10.60;;;3.00;;
33347;SDS011;19707;51.158;17.124;2023-06-01T16:09:49;14.20;;;3.90;;
33347;SDS011;19707;51.158;17.124;2023-06-01T16:12:51;4.40;;;3.30;;
33347;SDS011;19707;51.158;17.124;2023-06-01T16:15:54;3.80;;;3.10;;
33347;SDS011;19707;51.158;17.124;2023-06-01T16:18:56;5.70;;;3.20;;
33347;SDS011;19707;51.158;17.124;2023-06-01T16:21:58;8.10;;;3.40;;
33347;SDS011;19707;51.158;17.124;2023-06-01T16:25:00;7.50;;;4.00;;
33347;SDS011;19707;51.158;17.124;2023-06-01T16:28:03;11.50;;;3.70;;
33347;SDS011;19707;51.158;17.124;2023-06-01T16:31:05;9.90;;;3.80;;
33347;SDS011;19707;51.158;17.124;2023-06-01T16:34:08;9.40;;;3.90;;
33347;SDS011;19707;51.158;17.124;2023-06-01T16:37:10;5.90;;;3.50;;
33347;SDS011;19707;51.158;17.124;2023-06-01T16:40:12;5.20;;;4.00;;
33347;SDS011;19707;51.158;17.124;2023-06-01T16:43:15;7.40;;;4.40;;
33347;SDS011;19707;51.158;17.124;2023-06-01T16:46:20;5.70;;;4.00;;
33347;SDS011;19707;51.158;17.124;2023-06-01T16:49:22;6.90;;;4.60;;
33347;SDS011;19707;51.158;17.124;2023-06-01T16:52:27;4.90;;;3.90;;
33347;SDS011;19707;51.158;17.124;2023-06-01T16:55:29;8.90;;;4.20;;
33347;SDS011;19707;51.158;17.124;2023-06-01T16:58:32;5.40;;;4.00;;
33347;SDS011;19707;51.158;17.124;2023-06-01T17:01:34;7.90;;;5.60;;
33347;SDS011;19707;51.158;17.124;2023-06-01T17:04:38;7.80;;;5.10;;
33347;SDS011;19707;51.158;17.124;2023-06-01T17:07:40;15.80;;;4.70;;
33347;SDS011;19707;51.158;17.124;2023-06-01T17:10:44;6.10;;;3.90;;
33347;SDS011;19707;51.158;17.124;2023-06-01T17:13:46;5.80;;;4.20;;
33347;SDS011;19707;51.158;17.124;2023-06-01T17:16:48;5.70;;;4.60;;
33347;SDS011;19707;51.158;17.124;2023-06-01T17:19:51;8.90;;;4.70;;
33347;SDS011;19707;51.158;17.124;2023-06-01T17:22:53;11.60;;;4.90;;
33347;SDS011;19707;51.158;17.124;2023-06-01T17:25:56;6.40;;;4.80;;
33347;SDS011;19707;51.158;17.124;2023-06-01T17:28:58;6.70;;;4.30;;
33347;SDS011;19707;51.158;17.124;2023-06-01T17:32:00;7.70;;;4.10;;
33347;SDS011;19707;51.158;17.124;2023-06-01T17:35:06;6.40;;;4.20;;
33347;SDS011;19707;51.158;17.124;2023-06-01T17:38:09;6.70;;;4.40;;
33347;SDS011;19707;51.158;17.124;2023-06-01T17:41:12;5.90;;;4.10;;
33347;SDS011;19707;51.158;17.124;2023-06-01T17:44:14;7.00;;;4.50;;
33347;SDS011;19707;51.158;17.124;2023-06-01T17:47:18;9.00;;;4.60;;
33347;SDS011;19707;51.158;17.124;2023-06-01T17:50:21;7.20;;;4.60;;
33347;SDS011;19707;51.158;17.124;2023-06-01T17:53:23;7.80;;;4.40;;
33347;SDS011;19707;51.158;17.124;2023-06-01T17:56:26;11.10;;;4.60;;
33347;SDS011;19707;51.158;17.124;2023-06-01T17:59:29;10.60;;;5.60;;
33347;SDS011;19707;51.158;17.124;2023-06-01T18:02:31;10.40;;;4.20;;
33347;SDS011;19707;51.158;17.124;2023-06-01T18:05:33;7.20;;;5.00;;
33347;SDS011;19707;51.158;17.124;2023-06-01T18:08:36;14.00;;;6.70;;
33347;SDS011;19707;51.158;17.124;2023-06-01T18:11:38;12.60;;;6.40;;
33347;SDS011;19707;51.158;17.124;2023-06-01T18:14:40;10.50;;;6.20;;
33347;SDS011;19707;51.158;17.124;2023-06-01T18:17:43;10.00;;;6.90;;
33347;SDS011;19707;51.158;17.124;2023-06-01T18:20:47;15.30;;;11.00;;
33347;SDS011;19707;51.158;17.124;2023-06-01T18:23:52;14.20;;;9.80;;
33347;SDS011;19707;51.158;17.124;2023-06-01T18:26:55;14.90;;;9.30;;
33347;SDS011;19707;51.158;17.124;2023-06-01T18:29:57;12.00;;;8.80;;
33347;SDS011;19707;51.158;17.124;2023-06-01T18:33:00;13.00;;;8.40;;
33347;SDS011;19707;51.158;17.124;2023-06-01T18:36:04;13.00;;;8.70;;
33347;SDS011;19707;51.158;17.124;2023-06-01T18:39:09;14.20;;;9.60;;